sensor_id;sensor_type;location;lat;lon;timestamp;pressure;altitude;pressure_sealevel;temperature;humidity
28000;BME280;15328;50.860;10.562;2023-10-13T00:00:13;96435.22;;;17.99;67.18
28000;BME280;15328;50.860;10.562;2023-10-13T00:05:29;96433.34;;;17.99;67.29
28000;BME280;15328;50.860;10.562;2023-10-13T00:10:33;96421.50;;;18.00;67.52
28000;BME280;15328;50.860;10.562;2023-10-13T00:15:43;96424.47;;;18.04;67.21
28000;BME280;15328;50.860;10.562;2023-10-13T00:20:57;96426.34;;;18.03;67.35
28000;BME280;15328;50.860;10.562;2023-10-13T00:25:57;96432.81;;;18.07;67.24
28000;BME280;15328;50.860;10.562;2023-10-13T00:30:59;96422.31;;;18.06;67.45
28000;BME280;15328;50.860;10.562;2023-10-13T00:36:00;96419.13;;;18.09;67.45
28000;BME280;15328;50.860;10.562;2023-10-13T00:41:01;96411.84;;;18.09;67.37
28000;BME280;15328;50.860;10.562;2023-10-13T00:46:15;96411.31;;;18.12;67.02
28000;BME280;15328;50.860;10.562;2023-10-13T00:51:19;96411.31;;;18.12;67.04
28000;BME280;15328;50.860;10.562;2023-10-13T00:56:33;96412.13;;;18.13;67.11
28000;BME280;15328;50.860;10.562;2023-10-13T01:01:34;96420.75;;;18.15;67.01
28000;BME280;15328;50.860;10.562;2023-10-13T01:06:36;96415.63;;;18.13;67.01
28000;BME280;15328;50.860;10.562;2023-10-13T01:11:50;96409.72;;;18.16;66.67
28000;BME280;15328;50.860;10.562;2023-10-13T01:16:55;96414.28;;;18.11;66.93
28000;BME280;15328;50.860;10.562;2023-10-13T01:21:55;96416.97;;;18.11;66.61
28000;BME280;15328;50.860;10.562;2023-10-13T01:27:04;96406.47;;;18.09;66.66
28000;BME280;15328;50.860;10.562;2023-10-13T01:32:25;96394.63;;;18.15;66.45
28000;BME280;15328;50.860;10.562;2023-10-13T01:37:25;96386.03;;;18.23;66.20
28000;BME280;15328;50.860;10.562;2023-10-13T01:42:26;96394.38;;;18.27;65.80
28000;BME280;15328;50.860;10.562;2023-10-13T01:47:28;96409.44;;;18.28;65.97
28000;BME280;15328;50.860;10.562;2023-10-13T01:52:28;96405.69;;;18.29;65.85
28000;BME280;15328;50.860;10.562;2023-10-13T01:57:29;96394.09;;;18.34;65.71
28000;BME280;15328;50.860;10.562;2023-10-13T02:02:29;96390.34;;;18.35;65.59
28000;BME280;15328;50.860;10.562;2023-10-13T02:07:30;96385.78;;;18.40;65.48
28000;BME280;15328;50.860;10.562;2023-10-13T02:12:30;96378.50;;;18.36;65.44
28000;BME280;15328;50.860;10.562;2023-10-13T02:17:42;96384.16;;;18.39;65.45
28000;BME280;15328;50.860;10.562;2023-10-13T02:22:42;96375.56;;;18.42;65.20
28000;BME280;15328;50.860;10.562;2023-10-13T02:27:51;96371.50;;;18.40;65.24
28000;BME280;15328;50.860;10.562;2023-10-13T02:32:58;96365.84;;;18.41;65.25
28000;BME280;15328;50.860;10.562;2023-10-13T02:38:05;96351.59;;;18.41;65.07
28000;BME280;15328;50.860;10.562;2023-10-13T02:43:10;96349.44;;;18.38;64.98
28000;BME280;15328;50.860;10.562;2023-10-13T02:48:10;96347.28;;;18.40;65.11
28000;BME280;15328;50.860;10.562;2023-10-13T02:53:17;96349.44;;;18.38;65.12
28000;BME280;15328;50.860;10.562;2023-10-13T02:58:18;96340.00;;;18.35;65.24
28000;BME280;15328;50.860;10.562;2023-10-13T03:03:18;96336.25;;;18.36;65.56
28000;BME280;15328;50.860;10.562;2023-10-13T03:08:19;96347.53;;;18.33;65.09
28000;BME280;15328;50.860;10.562;2023-10-13T03:13:26;96335.13;;;18.32;65.14
28000;BME280;15328;50.860;10.562;2023-10-13T03:18:26;96321.69;;;18.27;65.16
28000;BME280;15328;50.860;10.562;2023-10-13T03:23:33;96334.59;;;18.25;65.34
28000;BME280;15328;50.860;10.562;2023-10-13T03:28:45;96330.03;;;18.26;65.28
28000;BME280;15328;50.860;10.562;2023-10-13T03:33:51;96325.19;;;18.22;65.48
28000;BME280;15328;50.860;10.562;2023-10-13T03:38:56;96311.19;;;18.20;65.55
28000;BME280;15328;50.860;10.562;2023-10-13T03:43:57;96314.97;;;18.19;65.70
28000;BME280;15328;50.860;10.562;2023-10-13T03:49:08;96305.53;;;18.17;65.77
28000;BME280;15328;50.860;10.562;2023-10-13T03:54:13;96300.16;;;18.12;65.66
28000;BME280;15328;50.860;10.562;2023-10-13T03:59:15;96302.84;;;18.12;65.77
28000;BME280;15328;50.860;10.562;2023-10-13T04:04:16;96295.03;;;18.10;65.90
28000;BME280;15328;50.860;10.562;2023-10-13T04:09:35;96282.91;;;18.08;65.92
28000;BME280;15328;50.860;10.562;2023-10-13T04:14:36;96290.16;;;18.07;66.04
28000;BME280;15328;50.860;10.562;2023-10-13T04:19:57;96282.38;;;18.06;66.16
28000;BME280;15328;50.860;10.562;2023-10-13T04:25:07;96289.34;;;18.07;66.11
28000;BME280;15328;50.860;10.562;2023-10-13T04:30:27;96278.09;;;18.10;66.31
28000;BME280;15328;50.860;10.562;2023-10-13T04:35:38;96272.69;;;18.10;66.24
28000;BME280;15328;50.860;10.562;2023-10-13T04:40:47;96269.72;;;18.06;66.35
28000;BME280;15328;50.860;10.562;2023-10-13T04:46:01;96258.44;;;18.09;66.28
28000;BME280;15328;50.860;10.562;2023-10-13T04:51:21;96261.38;;;18.08;66.28
28000;BME280;15328;50.860;10.562;2023-10-13T04:56:34;96242.53;;;18.08;66.53
28000;BME280;15328;50.860;10.562;2023-10-13T05:01:53;96232.88;;;18.12;66.35
28000;BME280;15328;50.860;10.562;2023-10-13T05:07:12;96224.53;;;18.13;66.32
28000;BME280;15328;50.860;10.562;2023-10-13T05:12:30;96231.78;;;18.13;66.52
28000;BME280;15328;50.860;10.562;2023-10-13T05:17:49;96230.44;;;18.15;66.35
28000;BME280;15328;50.860;10.562;2023-10-13T05:23:08;96222.09;;;18.17;66.43
28000;BME280;15328;50.860;10.562;2023-10-13T05:28:27;96225.59;;;18.12;66.87
28000;BME280;15328;50.860;10.562;2023-10-13T05:33:46;96220.47;;;18.16;66.64
28000;BME280;15328;50.860;10.562;2023-10-13T05:39:05;96222.34;;;18.20;66.64
28000;BME280;15328;50.860;10.562;2023-10-13T05:44:24;96228.81;;;18.19;66.80
28000;BME280;15328;50.860;10.562;2023-10-13T05:49:37;96224.78;;;18.17;67.25
28000;BME280;15328;50.860;10.562;2023-10-13T05:54:56;96202.69;;;18.20;67.25
28000;BME280;15328;50.860;10.562;2023-10-13T06:00:15;96204.31;;;18.21;67.46
28000;BME280;15328;50.860;10.562;2023-10-13T06:05:34;96205.66;;;18.23;67.56
28000;BME280;15328;50.860;10.562;2023-10-13T06:11:00;96207.00;;;18.26;67.60
28000;BME280;15328;50.860;10.562;2023-10-13T06:16:19;96191.13;;;18.25;67.84
28000;BME280;15328;50.860;10.562;2023-10-13T06:21:38;96176.84;;;18.29;68.14
28000;BME280;15328;50.860;10.562;2023-10-13T06:26:57;96177.09;;;18.33;67.95
28000;BME280;15328;50.860;10.562;2023-10-13T06:32:15;96171.44;;;18.39;68.16
28000;BME280;15328;50.860;10.562;2023-10-13T06:37:16;96169.00;;;18.43;68.25
28000;BME280;15328;50.860;10.562;2023-10-13T06:42:23;96173.03;;;18.45;68.49
28000;BME280;15328;50.860;10.562;2023-10-13T06:47:27;96172.75;;;18.52;68.46
28000;BME280;15328;50.860;10.562;2023-10-13T06:52:27;96184.06;;;18.49;68.72
28000;BME280;15328;50.860;10.562;2023-10-13T06:57:29;96187.81;;;18.53;68.69
28000;BME280;15328;50.860;10.562;2023-10-13T07:02:34;96183.50;;;18.52;69.03
28000;BME280;15328;50.860;10.562;2023-10-13T07:07:34;96187.84;;;18.63;68.61
28000;BME280;15328;50.860;10.562;2023-10-13T07:12:37;96176.78;;;18.65;68.50
28000;BME280;15328;50.860;10.562;2023-10-13T07:17:37;96205.88;;;18.68;68.39
28000;BME280;15328;50.860;10.562;2023-10-13T07:22:41;96189.72;;;18.68;68.43
28000;BME280;15328;50.860;10.562;2023-10-13T07:27:54;96201.56;;;18.67;68.29
28000;BME280;15328;50.860;10.562;2023-10-13T07:32:56;96224.72;;;18.68;68.20
28000;BME280;15328;50.860;10.562;2023-10-13T07:37:59;96217.72;;;18.67;68.44
28000;BME280;15328;50.860;10.562;2023-10-13T07:43:00;96211.50;;;18.71;67.96
28000;BME280;15328;50.860;10.562;2023-10-13T07:48:09;96207.47;;;18.74;67.75
28000;BME280;15328;50.860;10.562;2023-10-13T07:53:28;96192.91;;;18.75;67.91
28000;BME280;15328;50.860;10.562;2023-10-13T07:58:34;96191.78;;;18.81;67.77
28000;BME280;15328;50.860;10.562;2023-10-13T08:03:47;96196.66;;;18.79;68.13
28000;BME280;15328;50.860;10.562;2023-10-13T08:08:49;96181.84;;;18.76;68.13
28000;BME280;15328;50.860;10.562;2023-10-13T08:14:07;96192.06;;;18.79;68.20
28000;BME280;15328;50.860;10.562;2023-10-13T08:19:13;96193.44;;;18.77;68.79
28000;BME280;15328;50.860;10.562;2023-10-13T08:24:16;96200.16;;;18.79;68.88
28000;BME280;15328;50.860;10.562;2023-10-13T08:29:25;96204.97;;;18.93;68.88
28000;BME280;15328;50.860;10.562;2023-10-13T08:34:28;96196.00;;;19.07;68.81
28000;BME280;15328;50.860;10.562;2023-10-13T08:39:30;96212.13;;;19.12;68.28
28000;BME280;15328;50.860;10.562;2023-10-13T08:44:48;96203.22;;;19.22;67.81
28000;BME280;15328;50.860;10.562;2023-10-13T08:49:52;96182.97;;;19.25;67.64
28000;BME280;15328;50.860;10.562;2023-10-13T08:55:10;96187.25;;;19.31;68.04
28000;BME280;15328;50.860;10.562;2023-10-13T09:00:33;96184.16;;;19.53;68.44
28000;BME280;15328;50.860;10.562;2023-10-13T09:05:53;96190.75;;;19.75;67.56
28000;BME280;15328;50.860;10.562;2023-10-13T09:11:09;96181.44;;;20.21;67.04
28000;BME280;15328;50.860;10.562;2023-10-13T09:16:14;96162.22;;;20.56;65.62
28000;BME280;15328;50.860;10.562;2023-10-13T09:21:22;96166.19;;;21.07;65.59
28000;BME280;15328;50.860;10.562;2023-10-13T09:26:34;96158.22;;;21.39;62.31
28000;BME280;15328;50.860;10.562;2023-10-13T09:31:36;96155.63;;;21.67;60.29
28000;BME280;15328;50.860;10.562;2023-10-13T09:36:42;96147.66;;;21.89;60.38
28000;BME280;15328;50.860;10.562;2023-10-13T09:41:42;96146.91;;;22.62;58.32
28000;BME280;15328;50.860;10.562;2023-10-13T09:46:43;96136.75;;;23.59;56.66
28000;BME280;15328;50.860;10.562;2023-10-13T09:51:44;96133.31;;;24.20;51.55
28000;BME280;15328;50.860;10.562;2023-10-13T09:56:49;96111.47;;;24.03;50.89
28000;BME280;15328;50.860;10.562;2023-10-13T10:01:53;96118.97;;;23.75;49.91
28000;BME280;15328;50.860;10.562;2023-10-13T10:06:58;96112.84;;;23.47;51.33
28000;BME280;15328;50.860;10.562;2023-10-13T10:12:13;96101.78;;;23.43;51.05
28000;BME280;15328;50.860;10.562;2023-10-13T10:17:18;96094.19;;;23.54;51.32
28000;BME280;15328;50.860;10.562;2023-10-13T10:22:28;96091.69;;;23.80;51.02
28000;BME280;15328;50.860;10.562;2023-10-13T10:27:33;96080.13;;;23.97;50.58
28000;BME280;15328;50.860;10.562;2023-10-13T10:32:35;96072.97;;;24.32;49.12
28000;BME280;15328;50.860;10.562;2023-10-13T10:37:35;96087.03;;;24.74;47.60
28000;BME280;15328;50.860;10.562;2023-10-13T10:42:36;96067.03;;;24.78;47.38
28000;BME280;15328;50.860;10.562;2023-10-13T10:47:47;96068.31;;;24.81;47.22
28000;BME280;15328;50.860;10.562;2023-10-13T10:52:47;96076.78;;;24.71;47.01
28000;BME280;15328;50.860;10.562;2023-10-13T10:57:57;96072.84;;;24.94;46.83
28000;BME280;15328;50.860;10.562;2023-10-13T11:02:58;96042.16;;;25.02;46.45
28000;BME280;15328;50.860;10.562;2023-10-13T11:07:58;96047.44;;;25.24;45.12
28000;BME280;15328;50.860;10.562;2023-10-13T11:12:59;96055.44;;;25.30;44.21
28000;BME280;15328;50.860;10.562;2023-10-13T11:18:13;96061.03;;;25.42;44.05
28000;BME280;15328;50.860;10.562;2023-10-13T11:23:21;96043.09;;;25.41;43.54
28000;BME280;15328;50.860;10.562;2023-10-13T11:28:25;96032.53;;;25.31;43.03
28000;BME280;15328;50.860;10.562;2023-10-13T11:33:28;96056.72;;;25.32;43.33
28000;BME280;15328;50.860;10.562;2023-10-13T11:38:29;96059.25;;;25.46;42.87
28000;BME280;15328;50.860;10.562;2023-10-13T11:43:51;96030.75;;;25.52;42.69
28000;BME280;15328;50.860;10.562;2023-10-13T11:48:51;96030.44;;;25.45;42.59
28000;BME280;15328;50.860;10.562;2023-10-13T11:53:55;96016.06;;;25.27;41.88
28000;BME280;15328;50.860;10.562;2023-10-13T11:58:55;96009.16;;;25.12;42.53
28000;BME280;15328;50.860;10.562;2023-10-13T12:04:01;96004.38;;;25.09;42.99
28000;BME280;15328;50.860;10.562;2023-10-13T12:09:20;95992.69;;;25.09;42.28
28000;BME280;15328;50.860;10.562;2023-10-13T12:14:20;95999.56;;;25.06;42.57
28000;BME280;15328;50.860;10.562;2023-10-13T12:19:30;95984.50;;;25.17;43.01
28000;BME280;15328;50.860;10.562;2023-10-13T12:24:30;95982.13;;;25.24;42.75
28000;BME280;15328;50.860;10.562;2023-10-13T12:29:36;95995.38;;;25.35;43.09
28000;BME280;15328;50.860;10.562;2023-10-13T12:34:36;95994.56;;;25.43;41.19
28000;BME280;15328;50.860;10.562;2023-10-13T12:39:55;95982.22;;;25.54;40.56
28000;BME280;15328;50.860;10.562;2023-10-13T12:45:14;95994.53;;;25.60;40.37
28000;BME280;15328;50.860;10.562;2023-10-13T12:50:33;95988.66;;;25.32;40.29
28000;BME280;15328;50.860;10.562;2023-10-13T12:55:44;95989.63;;;25.19;40.66
28000;BME280;15328;50.860;10.562;2023-10-13T13:00:44;95977.00;;;24.97;41.71
28000;BME280;15328;50.860;10.562;2023-10-13T13:05:48;95980.97;;;24.91;41.26
28000;BME280;15328;50.860;10.562;2023-10-13T13:10:49;95977.31;;;24.78;42.45
28000;BME280;15328;50.860;10.562;2023-10-13T13:15:49;95986.25;;;24.70;42.77
28000;BME280;15328;50.860;10.562;2023-10-13T13:20:50;95967.19;;;24.61;42.59
28000;BME280;15328;50.860;10.562;2023-10-13T13:25:53;95970.53;;;24.41;42.86
28000;BME280;15328;50.860;10.562;2023-10-13T13:30:53;95966.03;;;24.37;43.36
28000;BME280;15328;50.860;10.562;2023-10-13T13:35:54;95967.75;;;24.24;43.48
28000;BME280;15328;50.860;10.562;2023-10-13T13:40:55;95959.13;;;24.22;43.85
28000;BME280;15328;50.860;10.562;2023-10-13T13:45:55;95961.38;;;24.28;43.87
28000;BME280;15328;50.860;10.562;2023-10-13T13:51:04;95949.03;;;24.22;43.94
28000;BME280;15328;50.860;10.562;2023-10-13T13:56:05;95933.69;;;24.18;43.23
28000;BME280;15328;50.860;10.562;2023-10-13T14:01:05;95934.44;;;24.01;44.03
28000;BME280;15328;50.860;10.562;2023-10-13T14:06:19;95924.84;;;23.95;43.96
28000;BME280;15328;50.860;10.562;2023-10-13T14:11:31;95915.72;;;23.91;43.20
28000;BME280;15328;50.860;10.562;2023-10-13T14:16:41;95914.72;;;23.78;43.85
28000;BME280;15328;50.860;10.562;2023-10-13T14:21:44;95916.91;;;23.67;43.63
28000;BME280;15328;50.860;10.562;2023-10-13T14:26:44;95906.91;;;23.54;43.08
28000;BME280;15328;50.860;10.562;2023-10-13T14:31:45;95909.75;;;23.40;43.63
28000;BME280;15328;50.860;10.562;2023-10-13T14:36:48;95914.03;;;23.33;44.02
28000;BME280;15328;50.860;10.562;2023-10-13T14:41:48;95891.34;;;23.29;43.69
28000;BME280;15328;50.860;10.562;2023-10-13T14:46:49;95906.13;;;23.23;43.90
28000;BME280;15328;50.860;10.562;2023-10-13T14:51:54;95896.53;;;23.17;44.21
28000;BME280;15328;50.860;10.562;2023-10-13T14:57:00;95898.25;;;23.12;44.78
28000;BME280;15328;50.860;10.562;2023-10-13T15:02:00;95873.66;;;23.09;44.58
28000;BME280;15328;50.860;10.562;2023-10-13T15:07:01;95863.75;;;23.04;45.03
28000;BME280;15328;50.860;10.562;2023-10-13T15:12:02;95854.34;;;23.02;44.99
28000;BME280;15328;50.860;10.562;2023-10-13T15:17:05;95850.94;;;22.96;44.78
28000;BME280;15328;50.860;10.562;2023-10-13T15:22:09;95846.25;;;22.88;44.82
28000;BME280;15328;50.860;10.562;2023-10-13T15:27:16;95843.63;;;22.74;44.68
28000;BME280;15328;50.860;10.562;2023-10-13T15:32:21;95841.00;;;22.69;45.25
28000;BME280;15328;50.860;10.562;2023-10-13T15:37:40;95834.72;;;22.60;44.90
28000;BME280;15328;50.860;10.562;2023-10-13T15:42:42;95832.78;;;22.52;45.23
28000;BME280;15328;50.860;10.562;2023-10-13T15:47:46;95824.16;;;22.50;45.36
28000;BME280;15328;50.860;10.562;2023-10-13T15:52:48;95831.00;;;22.47;45.41
28000;BME280;15328;50.860;10.562;2023-10-13T15:57:48;95815.75;;;22.38;45.63
28000;BME280;15328;50.860;10.562;2023-10-13T16:02:53;95796.13;;;22.32;45.44
28000;BME280;15328;50.860;10.562;2023-10-13T16:07:54;95792.75;;;22.27;45.40
28000;BME280;15328;50.860;10.562;2023-10-13T16:12:54;95795.25;;;22.23;45.87
28000;BME280;15328;50.860;10.562;2023-10-13T16:17:57;95789.03;;;22.23;45.76
28000;BME280;15328;50.860;10.562;2023-10-13T16:22:58;95780.22;;;22.17;45.80
28000;BME280;15328;50.860;10.562;2023-10-13T16:27:59;95774.13;;;22.11;45.77
28000;BME280;15328;50.860;10.562;2023-10-13T16:32:59;95773.31;;;22.11;45.35
28000;BME280;15328;50.860;10.562;2023-10-13T16:37:59;95778.56;;;22.07;45.47
28000;BME280;15328;50.860;10.562;2023-10-13T16:43:06;95779.19;;;22.04;45.40
28000;BME280;15328;50.860;10.562;2023-10-13T16:48:07;95769.53;;;21.98;45.35
28000;BME280;15328;50.860;10.562;2023-10-13T16:53:07;95765.06;;;21.94;45.34
28000;BME280;15328;50.860;10.562;2023-10-13T16:58:11;95757.22;;;21.92;44.87
28000;BME280;15328;50.860;10.562;2023-10-13T17:03:12;95770.16;;;21.95;44.71
28000;BME280;15328;50.860;10.562;2023-10-13T17:08:12;95766.34;;;21.96;44.39
28000;BME280;15328;50.860;10.562;2023-10-13T17:13:13;95750.91;;;21.97;44.73
28000;BME280;15328;50.860;10.562;2023-10-13T17:18:13;95752.50;;;21.98;44.22
28000;BME280;15328;50.860;10.562;2023-10-13T17:23:16;95753.78;;;22.00;43.63
28000;BME280;15328;50.860;10.562;2023-10-13T17:28:16;95749.00;;;21.97;42.99
28000;BME280;15328;50.860;10.562;2023-10-13T17:33:17;95738.66;;;21.99;43.09
28000;BME280;15328;50.860;10.562;2023-10-13T17:38:17;95747.75;;;22.03;43.02
28000;BME280;15328;50.860;10.562;2023-10-13T17:43:17;95738.56;;;22.04;42.48
28000;BME280;15328;50.860;10.562;2023-10-13T17:48:18;95739.63;;;22.03;42.37
28000;BME280;15328;50.860;10.562;2023-10-13T17:53:18;95731.94;;;21.97;42.82
28000;BME280;15328;50.860;10.562;2023-10-13T17:58:18;95732.25;;;21.95;42.60
28000;BME280;15328;50.860;10.562;2023-10-13T18:03:21;95738.47;;;21.96;42.68
28000;BME280;15328;50.860;10.562;2023-10-13T18:08:21;95717.78;;;22.00;42.47
28000;BME280;15328;50.860;10.562;2023-10-13T18:13:22;95714.78;;;22.01;42.44
28000;BME280;15328;50.860;10.562;2023-10-13T18:18:23;95707.13;;;22.03;42.33
28000;BME280;15328;50.860;10.562;2023-10-13T18:23:23;95700.94;;;22.03;42.00
28000;BME280;15328;50.860;10.562;2023-10-13T18:28:23;95698.75;;;22.05;41.93
28000;BME280;15328;50.860;10.562;2023-10-13T18:33:23;95683.59;;;22.04;42.09
28000;BME280;15328;50.860;10.562;2023-10-13T18:38:24;95675.75;;;22.02;41.33
28000;BME280;15328;50.860;10.562;2023-10-13T18:43:25;95673.06;;;22.02;41.01
28000;BME280;15328;50.860;10.562;2023-10-13T18:48:26;95667.34;;;22.04;41.00
28000;BME280;15328;50.860;10.562;2023-10-13T18:53:26;95662.22;;;22.02;40.33
28000;BME280;15328;50.860;10.562;2023-10-13T18:58:28;95644.59;;;22.05;39.71
28000;BME280;15328;50.860;10.562;2023-10-13T19:03:29;95641.88;;;22.05;40.22
28000;BME280;15328;50.860;10.562;2023-10-13T19:08:29;95626.59;;;22.09;39.66
28000;BME280;15328;50.860;10.562;2023-10-13T19:13:31;95625.50;;;22.10;40.05
28000;BME280;15328;50.860;10.562;2023-10-13T19:18:32;95632.03;;;22.09;40.23
28000;BME280;15328;50.860;10.562;2023-10-13T19:23:32;95615.59;;;22.05;39.85
28000;BME280;15328;50.860;10.562;2023-10-13T19:28:32;95602.66;;;22.02;39.74
28000;BME280;15328;50.860;10.562;2023-10-13T19:33:33;95600.56;;;21.99;39.02
28000;BME280;15328;50.860;10.562;2023-10-13T19:38:33;95588.00;;;22.03;39.64
28000;BME280;15328;50.860;10.562;2023-10-13T19:43:33;95572.88;;;22.02;39.71
28000;BME280;15328;50.860;10.562;2023-10-13T19:48:36;95571.75;;;22.03;38.92
28000;BME280;15328;50.860;10.562;2023-10-13T19:53:37;95560.44;;;22.01;38.72
28000;BME280;15328;50.860;10.562;2023-10-13T19:58:38;95563.03;;;22.06;38.78
28000;BME280;15328;50.860;10.562;2023-10-13T20:03:39;95566.34;;;22.03;39.02
28000;BME280;15328;50.860;10.562;2023-10-13T20:08:41;95557.63;;;22.06;38.67
28000;BME280;15328;50.860;10.562;2023-10-13T20:13:44;95549.94;;;22.00;38.67
28000;BME280;15328;50.860;10.562;2023-10-13T20:18:46;95540.84;;;21.96;38.21
28000;BME280;15328;50.860;10.562;2023-10-13T20:23:54;95527.31;;;21.96;37.85
28000;BME280;15328;50.860;10.562;2023-10-13T20:28:59;95535.09;;;21.97;37.76
28000;BME280;15328;50.860;10.562;2023-10-13T20:33:59;95548.25;;;21.90;37.51
28000;BME280;15328;50.860;10.562;2023-10-13T20:38:59;95525.50;;;21.91;37.33
28000;BME280;15328;50.860;10.562;2023-10-13T20:44:01;95519.81;;;21.93;36.82
28000;BME280;15328;50.860;10.562;2023-10-13T20:49:01;95529.84;;;21.92;36.30
28000;BME280;15328;50.860;10.562;2023-10-13T20:54:01;95519.59;;;21.89;36.84
28000;BME280;15328;50.860;10.562;2023-10-13T20:59:01;95525.16;;;21.84;36.68
28000;BME280;15328;50.860;10.562;2023-10-13T21:04:01;95515.13;;;21.84;36.73
28000;BME280;15328;50.860;10.562;2023-10-13T21:09:02;95513.22;;;21.85;36.97
28000;BME280;15328;50.860;10.562;2023-10-13T21:14:06;95506.22;;;21.84;36.83
28000;BME280;15328;50.860;10.562;2023-10-13T21:19:06;95502.34;;;21.76;37.78
28000;BME280;15328;50.860;10.562;2023-10-13T21:24:07;95495.00;;;21.68;37.36
28000;BME280;15328;50.860;10.562;2023-10-13T21:29:09;95489.59;;;21.68;36.55
28000;BME280;15328;50.860;10.562;2023-10-13T21:34:10;95488.78;;;21.68;36.45
28000;BME280;15328;50.860;10.562;2023-10-13T21:39:10;95493.88;;;21.69;36.42
28000;BME280;15328;50.860;10.562;2023-10-13T21:44:10;95474.16;;;21.69;35.86
28000;BME280;15328;50.860;10.562;2023-10-13T21:49:12;95480.53;;;21.73;35.46
28000;BME280;15328;50.860;10.562;2023-10-13T21:54:12;95473.56;;;21.80;35.45
28000;BME280;15328;50.860;10.562;2023-10-13T21:59:13;95482.16;;;21.82;35.74
28000;BME280;15328;50.860;10.562;2023-10-13T22:04:13;95468.75;;;21.77;35.22
28000;BME280;15328;50.860;10.562;2023-10-13T22:09:20;95473.56;;;21.80;35.64
28000;BME280;15328;50.860;10.562;2023-10-13T22:14:21;95464.16;;;21.78;35.44
28000;BME280;15328;50.860;10.562;2023-10-13T22:19:23;95463.03;;;21.79;35.47
28000;BME280;15328;50.860;10.562;2023-10-13T22:24:29;95464.94;;;21.78;35.07
28000;BME280;15328;50.860;10.562;2023-10-13T22:29:29;95458.59;;;21.83;35.21
28000;BME280;15328;50.860;10.562;2023-10-13T22:34:29;95464.00;;;21.83;35.49
28000;BME280;15328;50.860;10.562;2023-10-13T22:39:29;95475.78;;;21.78;35.26
28000;BME280;15328;50.860;10.562;2023-10-13T22:44:33;95480.38;;;21.78;35.52
28000;BME280;15328;50.860;10.562;2023-10-13T22:49:33;95482.28;;;21.69;35.48
28000;BME280;15328;50.860;10.562;2023-10-13T22:54:34;95488.03;;;21.76;35.50
28000;BME280;15328;50.860;10.562;2023-10-13T22:59:39;95478.00;;;21.76;36.04
28000;BME280;15328;50.860;10.562;2023-10-13T23:04:39;95491.88;;;21.83;36.39
28000;BME280;15328;50.860;10.562;2023-10-13T23:09:43;95507.38;;;21.92;36.10
28000;BME280;15328;50.860;10.562;2023-10-13T23:14:48;95506.13;;;21.98;36.37
28000;BME280;15328;50.860;10.562;2023-10-13T23:19:53;95514.06;;;21.94;38.40
28000;BME280;15328;50.860;10.562;2023-10-13T23:24:53;95501.75;;;21.88;40.59
28000;BME280;15328;50.860;10.562;2023-10-13T23:29:57;95507.09;;;21.71;41.35
28000;BME280;15328;50.860;10.562;2023-10-13T23:35:03;95489.34;;;21.56;42.18
28000;BME280;15328;50.860;10.562;2023-10-13T23:40:04;95471.97;;;21.48;42.57
28000;BME280;15328;50.860;10.562;2023-10-13T23:45:13;95493.56;;;21.40;42.89
28000;BME280;15328;50.860;10.562;2023-10-13T23:50:18;95486.47;;;21.30;43.15
28000;BME280;15328;50.860;10.562;2023-10-13T23:55:27;95492.91;;;21.20;44.45
